createdAt,value
2017-08-21T00:01:19.879Z,95.30
2017-08-21T00:03:48.167Z,95.10
2017-08-21T00:06:15.926Z,95.10
2017-08-21T00:08:43.418Z,94.90
2017-08-21T00:11:10.926Z,95.10
2017-08-21T00:13:38.429Z,95.00
2017-08-21T00:16:06.021Z,95.20
2017-08-21T00:18:33.530Z,95.30
2017-08-21T00:21:01.046Z,95.40
2017-08-21T00:23:28.583Z,95.40
2017-08-21T00:25:56.097Z,95.40
2017-08-21T00:28:24.367Z,95.70
2017-08-21T00:30:52.657Z,95.80
2017-08-21T00:33:20.914Z,95.90
2017-08-21T00:35:48.416Z,95.90
2017-08-21T00:38:15.914Z,95.90
2017-08-21T00:40:43.434Z,96.00
2017-08-21T00:43:10.938Z,96.00
2017-08-21T00:45:38.449Z,95.80
2017-08-21T00:48:05.944Z,95.70
2017-08-21T00:50:33.461Z,95.80
2017-08-21T00:53:00.958Z,95.80
2017-08-21T00:55:28.446Z,95.80
2017-08-21T00:57:56.761Z,96.10
2017-08-21T01:00:24.272Z,95.80
2017-08-21T01:02:51.779Z,95.80
2017-08-21T01:05:19.322Z,95.80
2017-08-21T01:07:46.808Z,96.10
2017-08-21T01:10:14.324Z,96.20
2017-08-21T01:12:41.842Z,96.80
2017-08-21T01:15:09.346Z,96.40
2017-08-21T01:17:37.659Z,96.60
2017-08-21T01:20:05.187Z,96.70
2017-08-21T01:22:32.700Z,96.70
2017-08-21T01:25:00.213Z,96.80
2017-08-21T01:27:27.737Z,97.00
2017-08-21T01:29:55.235Z,97.10
2017-08-21T01:32:22.768Z,97.20
2017-08-21T01:34:51.137Z,97.30
2017-08-21T01:37:18.637Z,97.30
2017-08-21T01:39:46.163Z,97.10
2017-08-21T01:42:14.442Z,97.60
2017-08-21T01:44:42.732Z,97.30
2017-08-21T01:47:11.015Z,97.40
2017-08-21T01:49:39.258Z,97.30
2017-08-21T01:52:06.776Z,97.30
2017-08-21T01:54:34.315Z,97.30
2017-08-21T01:57:01.860Z,97.40
2017-08-21T01:59:30.114Z,97.70
2017-08-21T02:01:57.623Z,97.50
2017-08-21T02:04:25.117Z,97.40
2017-08-21T02:06:52.610Z,97.40
2017-08-21T02:09:20.117Z,97.90
2017-08-21T02:11:47.641Z,97.80
2017-08-21T02:14:15.906Z,97.80
2017-08-21T02:16:44.183Z,98.00
2017-08-21T02:19:12.450Z,98.20
2017-08-21T02:21:39.971Z,97.80
2017-08-21T02:24:07.474Z,97.80
2017-08-21T02:26:35.002Z,97.80
2017-08-21T02:29:02.549Z,97.70
2017-08-21T02:31:30.033Z,97.70
2017-08-21T02:33:57.545Z,97.80
2017-08-21T02:36:25.051Z,97.80
2017-08-21T02:38:52.576Z,97.80
2017-08-21T02:41:20.088Z,97.90
2017-08-21T02:43:47.573Z,98.10
2017-08-21T02:46:15.104Z,98.20
2017-08-21T02:48:43.390Z,98.70
2017-08-21T02:51:11.664Z,99.30
2017-08-21T02:53:39.938Z,98.90
2017-08-21T02:56:08.231Z,99.10
2017-08-21T02:58:36.489Z,99.30
2017-08-21T03:01:03.981Z,99.30
2017-08-21T03:03:31.574Z,99.40
2017-08-21T03:05:59.073Z,99.50
2017-08-21T03:08:27.339Z,99.60
2017-08-21T03:10:54.854Z,99.60
2017-08-21T03:13:22.373Z,99.50
2017-08-21T03:15:49.887Z,99.80
2017-08-21T03:18:17.414Z,99.60
2017-08-21T03:20:44.932Z,99.50
2017-08-21T03:23:12.506Z,99.30
2017-08-21T03:25:40.792Z,99.70
2017-08-21T03:28:09.049Z,99.00
2017-08-21T03:30:36.592Z,99.00
2017-08-21T03:33:04.231Z,98.90
2017-08-21T03:35:32.276Z,98.90
2017-08-21T03:37:59.792Z,99.10
2017-08-21T03:40:27.296Z,99.30
2017-08-21T03:42:54.801Z,99.50
2017-08-21T03:45:22.351Z,99.70
2017-08-21T03:47:49.874Z,99.50
2017-08-21T03:50:17.384Z,99.60
2017-08-21T03:52:44.876Z,99.40
2017-08-21T03:55:13.164Z,99.20
2017-08-21T03:57:40.736Z,99.20
2017-08-21T04:00:08.278Z,99.10
2017-08-21T04:02:36.570Z,99.30
2017-08-21T04:05:04.078Z,99.30
2017-08-21T04:07:31.579Z,99.10
2017-08-21T04:09:59.064Z,99.20
2017-08-21T04:12:26.558Z,99.10
2017-08-21T04:14:54.087Z,98.80
2017-08-21T04:17:21.591Z,98.50
2017-08-21T04:19:49.098Z,98.60
2017-08-21T04:22:16.620Z,98.70
2017-08-21T04:24:44.898Z,98.50
2017-08-21T04:27:13.173Z,98.50
2017-08-21T04:29:41.470Z,98.40
2017-08-21T04:32:08.991Z,98.40
2017-08-21T04:34:36.480Z,98.00
2017-08-21T04:37:04.010Z,98.10
2017-08-21T04:39:31.619Z,98.00
2017-08-21T04:41:59.141Z,97.80
2017-08-21T04:44:26.683Z,97.80
2017-08-21T04:46:54.197Z,97.70
2017-08-21T04:49:21.707Z,97.60
2017-08-21T04:51:49.224Z,97.50
2017-08-21T04:54:16.831Z,97.50
2017-08-21T04:56:44.465Z,97.50
2017-08-21T04:59:11.987Z,97.40
2017-08-21T05:01:39.487Z,97.70
2017-08-21T05:04:06.993Z,97.90
2017-08-21T05:06:34.497Z,97.80
2017-08-21T05:09:02.007Z,97.80
2017-08-21T05:11:30.277Z,97.80
2017-08-21T05:13:58.538Z,97.60
2017-08-21T05:16:26.059Z,97.50
2017-08-21T05:18:53.525Z,97.60
2017-08-21T05:21:21.029Z,97.70
2017-08-21T05:23:48.554Z,97.70
2017-08-21T05:26:16.058Z,97.60
2017-08-21T05:28:44.329Z,97.90
2017-08-21T05:31:12.611Z,97.50
2017-08-21T05:33:40.868Z,97.40
2017-08-21T05:36:08.370Z,97.40
2017-08-21T05:38:35.899Z,97.50
2017-08-21T05:41:03.415Z,97.40
2017-08-21T05:43:30.890Z,97.70
2017-08-21T05:45:58.390Z,97.90
2017-08-21T05:48:25.899Z,98.00
2017-08-21T05:50:53.422Z,98.10
2017-08-21T05:53:20.922Z,98.30
2017-08-21T05:55:48.416Z,98.40
2017-08-21T05:58:16.764Z,98.40
2017-08-21T06:00:44.299Z,98.40
2017-08-21T06:03:11.841Z,98.30
2017-08-21T06:05:39.363Z,98.00
2017-08-21T06:08:06.884Z,97.90
2017-08-21T06:10:34.518Z,98.00
2017-08-21T06:13:02.018Z,97.80
2017-08-21T06:15:29.541Z,97.80
2017-08-21T06:17:57.061Z,97.60
2017-08-21T06:20:24.639Z,97.10
2017-08-21T06:22:52.181Z,96.70
2017-08-21T06:25:19.706Z,96.80
2017-08-21T06:27:47.255Z,96.60
2017-08-21T06:30:14.774Z,96.60
2017-08-21T06:32:42.291Z,96.40
2017-08-21T06:35:09.822Z,96.30
2017-08-21T06:37:37.340Z,96.40
2017-08-21T06:40:04.862Z,96.50
2017-08-21T06:42:32.432Z,96.80
2017-08-21T06:44:59.977Z,97.00
2017-08-21T06:47:27.479Z,96.40
2017-08-21T06:49:55.737Z,96.40
2017-08-21T06:52:23.256Z,96.40
2017-08-21T06:54:50.847Z,96.30
2017-08-21T06:57:18.411Z,96.40
2017-08-21T06:59:45.941Z,96.10
2017-08-21T07:02:13.508Z,96.30
2017-08-21T07:04:41.008Z,96.00
2017-08-21T07:07:08.507Z,95.50
2017-08-21T07:09:35.996Z,95.40
2017-08-21T07:12:03.533Z,95.30
2017-08-21T07:14:31.113Z,95.80
2017-08-21T07:16:58.624Z,95.40
2017-08-21T07:19:26.881Z,95.00
2017-08-21T07:21:54.406Z,95.00
2017-08-21T07:24:21.928Z,95.00
2017-08-21T07:26:49.452Z,95.00
2017-08-21T07:29:16.959Z,95.00
2017-08-21T07:31:44.463Z,94.90
2017-08-21T07:34:12.168Z,94.80
2017-08-21T07:36:39.685Z,94.70
2017-08-21T07:39:07.344Z,94.50
2017-08-21T07:41:34.854Z,94.50
2017-08-21T07:44:02.347Z,94.10
2017-08-21T07:46:29.917Z,94.40
2017-08-21T07:48:57.426Z,94.30
2017-08-21T07:51:24.902Z,93.80
2017-08-21T07:53:52.397Z,94.00
2017-08-21T07:56:19.888Z,93.80
2017-08-21T07:58:47.515Z,93.90
2017-08-21T08:01:15.018Z,93.90
2017-08-21T08:03:42.488Z,93.50
2017-08-21T08:06:10.077Z,93.30
2017-08-21T08:08:37.632Z,93.40
2017-08-21T08:11:05.180Z,93.10
2017-08-21T08:13:32.665Z,93.20
2017-08-21T08:16:00.196Z,93.10
2017-08-21T08:18:27.702Z,93.20
2017-08-21T08:20:55.339Z,92.60
2017-08-21T08:23:23.446Z,92.70
2017-08-21T08:25:50.940Z,92.70
2017-08-21T08:28:18.431Z,92.60
2017-08-21T08:30:45.934Z,92.30
2017-08-21T08:33:13.540Z,92.30
2017-08-21T08:35:41.070Z,91.90
2017-08-21T08:38:08.581Z,91.40
2017-08-21T08:40:36.121Z,91.10
2017-08-21T08:43:03.607Z,91.30
2017-08-21T08:45:31.911Z,91.10
2017-08-21T08:47:59.936Z,90.90
2017-08-21T08:50:27.442Z,90.90
2017-08-21T08:52:54.938Z,90.70
2017-08-21T08:55:22.448Z,90.10
2017-08-21T08:57:50.722Z,90.30
2017-08-21T09:00:19.035Z,90.60
2017-08-21T09:02:46.526Z,90.50
2017-08-21T09:05:14.073Z,90.30
2017-08-21T09:07:41.574Z,89.90
2017-08-21T09:10:09.168Z,89.50
2017-08-21T09:12:36.677Z,89.90
2017-08-21T09:15:04.186Z,89.80
2017-08-21T09:17:31.721Z,89.00
2017-08-21T09:19:59.248Z,88.30
2017-08-21T09:22:26.758Z,88.50
2017-08-21T09:24:54.266Z,87.40
2017-08-21T09:27:21.866Z,86.60
2017-08-21T09:29:50.290Z,85.20
2017-08-21T09:32:17.801Z,85.10
2017-08-21T09:34:46.064Z,82.80
2017-08-21T09:37:13.576Z,82.40
2017-08-21T09:39:41.088Z,82.40
2017-08-21T09:42:08.582Z,83.00
2017-08-21T09:44:36.169Z,82.00
2017-08-21T09:47:03.686Z,82.60
2017-08-21T09:49:31.214Z,82.90
2017-08-21T09:51:58.764Z,83.20
2017-08-21T09:54:26.320Z,82.60
2017-08-21T09:56:53.870Z,81.40
2017-08-21T09:59:21.433Z,79.90
2017-08-21T10:01:48.976Z,80.10
2017-08-21T10:04:16.532Z,81.40
2017-08-21T10:06:44.068Z,82.90
2017-08-21T10:09:11.582Z,82.60
2017-08-21T10:11:42.417Z,82.80
2017-08-21T10:16:46.763Z,82.20
2017-08-21T10:19:14.275Z,81.90
2017-08-21T10:21:41.770Z,81.90
2017-08-21T10:24:09.266Z,81.80
2017-08-21T10:26:36.769Z,83.00
2017-08-21T10:29:04.340Z,83.60
2017-08-21T10:31:31.843Z,83.30
2017-08-21T10:33:59.339Z,83.90
2017-08-21T10:36:26.895Z,81.40
2017-08-21T10:38:54.414Z,78.70
2017-08-21T10:41:21.905Z,73.60
2017-08-21T10:43:49.609Z,73.60
2017-08-21T10:46:17.947Z,76.20
2017-08-21T10:48:45.432Z,76.10
2017-08-21T10:51:12.928Z,79.60
2017-08-21T10:53:40.436Z,78.90
2017-08-21T10:56:08.010Z,78.50
2017-08-21T10:58:35.513Z,72.60
2017-08-21T11:01:03.015Z,66.40
2017-08-21T11:03:30.615Z,65.10
2017-08-21T11:05:58.286Z,66.50
2017-08-21T11:08:25.817Z,68.70
2017-08-21T11:10:53.321Z,70.80
2017-08-21T11:13:21.601Z,77.70
2017-08-21T11:15:49.879Z,77.90
2017-08-21T11:18:18.153Z,76.50
2017-08-21T11:20:46.405Z,77.70
2017-08-21T11:23:13.918Z,77.60
2017-08-21T11:25:41.435Z,77.60
2017-08-21T11:28:08.919Z,71.20
2017-08-21T11:30:36.422Z,69.70
2017-08-21T11:33:03.915Z,70.60
2017-08-21T11:35:32.172Z,63.70
2017-08-21T11:37:59.685Z,63.70
2017-08-21T11:40:27.182Z,60.10
2017-08-21T11:42:54.700Z,58.50
2017-08-21T11:45:22.211Z,57.10
2017-08-21T11:47:49.729Z,57.80
2017-08-21T11:50:17.250Z,57.50
2017-08-21T11:52:44.768Z,57.50
2017-08-21T11:55:12.264Z,56.80
2017-08-21T11:57:41.426Z,57.90
2017-08-21T12:00:08.925Z,57.90
2017-08-21T12:02:38.342Z,58.80
2017-08-21T12:05:05.843Z,60.30
2017-08-21T12:07:33.351Z,61.10
2017-08-21T12:10:00.865Z,61.10
2017-08-21T12:12:28.360Z,57.20
2017-08-21T12:14:56.788Z,59.90
2017-08-21T12:17:24.310Z,59.90
2017-08-21T12:19:52.655Z,65.10
2017-08-21T12:22:20.200Z,65.10
2017-08-21T12:24:47.725Z,66.60
2017-08-21T12:27:15.211Z,67.40
2017-08-21T12:29:46.302Z,68.10
2017-08-21T12:32:14.579Z,69.60
2017-08-21T12:34:42.838Z,69.70
2017-08-21T12:37:10.328Z,69.50
2017-08-21T12:39:37.874Z,69.00
2017-08-21T12:42:05.374Z,69.30
2017-08-21T12:44:33.176Z,69.00
2017-08-21T12:47:00.778Z,69.70
2017-08-21T12:49:28.295Z,69.90
2017-08-21T12:51:55.819Z,70.10
2017-08-21T12:54:23.503Z,70.40
2017-08-21T12:56:51.021Z,69.50
2017-08-21T12:59:18.537Z,69.80
2017-08-21T13:01:46.037Z,70.10
2017-08-21T13:04:13.522Z,71.30
2017-08-21T13:06:41.050Z,70.80
2017-08-21T13:09:35.475Z,71.60
2017-08-21T13:12:02.967Z,68.70
2017-08-21T13:14:30.461Z,65.80
2017-08-21T13:16:57.961Z,63.50
2017-08-21T13:19:25.452Z,61.20
2017-08-21T13:21:52.924Z,60.20
2017-08-21T13:24:20.427Z,59.10
2017-08-21T13:26:48.691Z,58.60
2017-08-21T13:29:16.216Z,59.30
2017-08-21T13:31:43.737Z,61.10
2017-08-21T13:34:11.238Z,62.30
2017-08-21T13:36:38.730Z,62.20
2017-08-21T13:39:07.216Z,63.30
2017-08-21T13:41:34.738Z,61.40
2017-08-21T13:44:02.250Z,62.90
2017-08-21T13:46:29.750Z,63.70
2017-08-21T13:48:57.283Z,64.20
2017-08-21T13:51:24.768Z,64.10
2017-08-21T13:53:52.285Z,63.40
2017-08-21T13:56:20.703Z,64.30
2017-08-21T13:58:48.220Z,63.00
2017-08-21T14:01:15.707Z,60.90
2017-08-21T14:03:43.201Z,62.30
2017-08-21T14:06:11.516Z,60.90
2017-08-21T14:08:39.068Z,67.40
2017-08-21T14:11:08.239Z,69.00
2017-08-21T14:13:36.442Z,70.10
2017-08-21T14:16:04.034Z,70.50
2017-08-21T14:18:31.563Z,73.00
2017-08-21T14:20:59.185Z,82.90
2017-08-21T14:23:26.720Z,86.00
2017-08-21T14:25:54.241Z,91.30
2017-08-21T14:28:21.759Z,93.30
2017-08-21T14:30:49.293Z,93.50
2017-08-21T14:33:16.824Z,94.30
2017-08-21T14:35:44.322Z,94.30
2017-08-21T14:38:11.872Z,93.70
2017-08-21T14:40:39.385Z,94.30
2017-08-21T14:43:06.884Z,93.00
2017-08-21T14:45:34.520Z,92.40
2017-08-21T14:48:02.038Z,92.30
2017-08-21T14:50:29.535Z,92.90
2017-08-21T14:52:57.077Z,92.40
2017-08-21T14:55:24.652Z,91.90
2017-08-21T14:57:52.743Z,90.60
2017-08-21T15:00:20.492Z,91.10
2017-08-21T15:02:48.014Z,90.10
2017-08-21T15:05:15.519Z,88.70
2017-08-21T15:07:43.057Z,88.80
2017-08-21T15:10:10.651Z,87.10
2017-08-21T15:12:38.199Z,88.00
2017-08-21T15:15:05.743Z,87.00
2017-08-21T15:17:33.264Z,85.60
2017-08-21T15:20:00.796Z,85.10
2017-08-21T15:22:28.337Z,84.90
2017-08-21T15:24:55.858Z,84.30
2017-08-21T15:27:23.371Z,84.10
2017-08-21T15:29:50.879Z,83.10
2017-08-21T15:32:28.370Z,82.40
2017-08-21T15:34:56.026Z,82.90
2017-08-21T15:37:23.534Z,82.80
2017-08-21T15:39:51.039Z,80.50
2017-08-21T15:42:18.564Z,81.60
2017-08-21T15:44:46.101Z,80.40
2017-08-21T15:47:13.640Z,81.20
2017-08-21T15:49:41.140Z,81.50
2017-08-21T15:52:08.664Z,81.40
2017-08-21T15:54:36.223Z,82.60
2017-08-21T15:57:03.844Z,81.30
2017-08-21T15:59:31.418Z,81.60
2017-08-21T16:01:58.902Z,81.10
2017-08-21T16:04:26.431Z,79.90
2017-08-21T16:06:53.936Z,80.40
2017-08-21T16:09:21.444Z,80.10
2017-08-21T16:11:48.972Z,80.50
2017-08-21T16:14:16.552Z,80.00
2017-08-21T16:16:44.096Z,80.70
2017-08-21T16:19:11.622Z,80.90
2017-08-21T16:21:39.224Z,81.40
2017-08-21T16:24:06.729Z,81.10
2017-08-21T16:26:34.241Z,81.40
2017-08-21T16:29:01.787Z,81.60
2017-08-21T16:31:29.336Z,81.50
2017-08-21T16:33:56.914Z,81.60
2017-08-21T16:36:24.438Z,81.60
2017-08-21T16:38:51.972Z,82.20
2017-08-21T16:41:19.516Z,82.90
2017-08-21T16:43:47.015Z,82.60
2017-08-21T16:46:14.546Z,82.70
2017-08-21T16:48:42.054Z,83.10
2017-08-21T16:51:09.565Z,83.70
2017-08-21T16:53:37.275Z,83.10
2017-08-21T16:56:04.783Z,83.70
2017-08-21T16:58:32.332Z,82.50
2017-08-21T17:01:01.190Z,82.50
2017-08-21T17:03:29.608Z,82.00
2017-08-21T17:05:57.166Z,82.10
2017-08-21T17:08:25.249Z,81.90
2017-08-21T17:10:52.875Z,83.40
2017-08-21T17:13:20.427Z,83.80
2017-08-21T17:15:47.934Z,89.00
2017-08-21T17:18:15.475Z,90.50
2017-08-21T17:20:43.476Z,91.10
2017-08-21T17:23:11.107Z,91.10
2017-08-21T17:25:38.633Z,91.20
2017-08-21T17:28:06.161Z,90.90
2017-08-21T17:30:33.814Z,91.00
2017-08-21T17:33:01.377Z,91.00
2017-08-21T17:35:28.954Z,91.50
2017-08-21T17:37:56.468Z,90.70
2017-08-21T17:40:23.987Z,91.20
2017-08-21T17:42:52.001Z,91.30
2017-08-21T17:45:19.627Z,91.00
2017-08-21T17:47:47.188Z,91.30
2017-08-21T17:50:14.681Z,90.70
2017-08-21T17:52:42.281Z,91.10
2017-08-21T17:55:10.798Z,91.00
2017-08-21T17:57:38.551Z,91.10
2017-08-21T18:00:06.075Z,91.50
2017-08-21T18:02:34.367Z,91.50
2017-08-21T18:05:02.580Z,91.40
2017-08-21T18:07:30.144Z,91.20
2017-08-21T18:09:58.298Z,91.40
2017-08-21T18:12:25.846Z,91.00
2017-08-21T18:14:53.409Z,91.40
2017-08-21T18:17:20.971Z,91.30
2017-08-21T18:19:48.572Z,91.30
2017-08-21T18:22:16.118Z,91.40
2017-08-21T18:24:43.690Z,91.40
2017-08-21T18:27:11.235Z,91.10
2017-08-21T18:29:38.768Z,91.00
2017-08-21T18:32:06.270Z,91.10
2017-08-21T18:34:33.751Z,91.10
2017-08-21T18:37:01.272Z,91.30
2017-08-21T18:39:29.559Z,91.40
2017-08-21T18:41:57.153Z,91.50
2017-08-21T18:44:26.576Z,91.80
2017-08-21T18:46:54.131Z,91.70
2017-08-21T18:49:21.688Z,91.70
2017-08-21T18:51:49.245Z,92.00
2017-08-21T18:54:16.791Z,92.00
2017-08-21T18:56:44.356Z,92.00
2017-08-21T18:59:11.933Z,92.10
2017-08-21T19:01:39.463Z,92.40
2017-08-21T19:04:07.053Z,92.20
2017-08-21T19:06:34.699Z,92.20
2017-08-21T19:09:03.261Z,92.40
2017-08-21T19:11:30.800Z,92.40
2017-08-21T19:13:58.340Z,92.40
2017-08-21T19:16:25.930Z,92.50
2017-08-21T19:18:53.565Z,92.70
2017-08-21T19:21:22.161Z,92.80
2017-08-21T19:23:49.736Z,92.80
2017-08-21T19:26:17.280Z,92.80
2017-08-21T19:28:44.862Z,93.00
2017-08-21T19:31:12.614Z,93.10
2017-08-21T19:33:40.187Z,93.10
2017-08-21T19:36:07.748Z,93.10
2017-08-21T19:38:35.255Z,93.10
2017-08-21T19:41:02.775Z,93.10
2017-08-21T19:43:30.296Z,93.20
2017-08-21T19:45:57.802Z,93.20
2017-08-21T19:48:25.308Z,93.30
2017-08-21T19:50:52.793Z,93.20
2017-08-21T19:53:20.341Z,93.20
2017-08-21T19:55:47.874Z,93.20
2017-08-21T19:58:15.362Z,93.20
2017-08-21T20:00:43.169Z,93.10
2017-08-21T20:03:10.724Z,93.10
2017-08-21T20:05:38.215Z,93.20
2017-08-21T20:08:05.734Z,93.10
2017-08-21T20:10:33.369Z,93.20
2017-08-21T20:13:00.881Z,93.20
2017-08-21T20:15:28.574Z,93.20
2017-08-21T20:17:56.076Z,93.30
2017-08-21T20:20:23.999Z,93.40
2017-08-21T20:22:51.535Z,93.30
2017-08-21T20:25:19.045Z,93.50
2017-08-21T20:27:46.562Z,93.60
2017-08-21T20:30:14.148Z,93.60
2017-08-21T20:32:41.651Z,93.70
2017-08-21T20:35:09.199Z,93.70
2017-08-21T20:37:37.617Z,93.70
2017-08-21T20:40:05.150Z,93.60
2017-08-21T20:42:32.682Z,93.70
2017-08-21T20:45:00.227Z,93.70
2017-08-21T20:47:27.739Z,93.70
2017-08-21T20:49:55.270Z,93.80
2017-08-21T20:52:22.841Z,93.80
2017-08-21T20:54:50.380Z,94.00
2017-08-21T20:57:18.055Z,94.10
2017-08-21T20:59:45.577Z,94.10
2017-08-21T21:02:13.097Z,94.30
2017-08-21T21:04:40.631Z,94.20
2017-08-21T21:07:08.145Z,94.20
2017-08-21T21:09:35.660Z,94.20
2017-08-21T21:12:04.147Z,94.40
2017-08-21T21:14:31.769Z,94.60
2017-08-21T21:16:59.375Z,94.50
2017-08-21T21:19:27.058Z,94.50
2017-08-21T21:21:54.587Z,94.80
2017-08-21T21:24:22.134Z,94.70
2017-08-21T21:26:49.742Z,94.90
2017-08-21T21:29:17.253Z,94.60
2017-08-21T21:31:44.834Z,94.70
2017-08-21T21:34:12.389Z,94.80
2017-08-21T21:36:39.936Z,94.80
2017-08-21T21:39:07.508Z,94.70
2017-08-21T21:41:35.084Z,94.80
2017-08-21T21:44:06.200Z,94.80
2017-08-21T21:46:33.708Z,94.80
2017-08-21T21:49:01.302Z,95.00
2017-08-21T21:51:28.927Z,95.10
2017-08-21T21:53:56.443Z,95.20
2017-08-21T21:56:24.057Z,95.20
2017-08-21T21:58:51.563Z,95.20
2017-08-21T22:01:19.054Z,95.30
2017-08-21T22:03:46.605Z,95.40
2017-08-21T22:06:14.173Z,95.30
2017-08-21T22:08:41.688Z,95.20
2017-08-21T22:11:09.710Z,95.40
2017-08-21T22:13:37.220Z,95.00
2017-08-21T22:16:04.714Z,94.70
2017-08-21T22:18:32.231Z,94.70
2017-08-21T22:20:59.749Z,94.40
2017-08-21T22:23:27.259Z,94.50
2017-08-21T22:25:54.763Z,94.50
2017-08-21T22:28:22.402Z,94.30
2017-08-21T22:30:49.930Z,94.00
2017-08-21T22:33:17.433Z,93.90
2017-08-21T22:35:44.977Z,93.60
2017-08-21T22:38:12.505Z,93.60
2017-08-21T22:40:40.044Z,93.50
2017-08-21T22:43:07.558Z,93.40
2017-08-21T22:45:35.086Z,93.50
2017-08-21T22:48:02.588Z,93.20
2017-08-21T22:50:30.134Z,93.00
2017-08-21T22:52:57.637Z,92.80
2017-08-21T22:55:25.113Z,92.80
2017-08-21T22:57:52.728Z,92.80
2017-08-21T23:00:20.244Z,92.60
2017-08-21T23:02:47.742Z,92.60
2017-08-21T23:05:15.386Z,92.70
2017-08-21T23:07:42.883Z,93.00
2017-08-21T23:10:10.374Z,92.90
2017-08-21T23:12:37.886Z,93.00
2017-08-21T23:15:05.413Z,92.90
2017-08-21T23:17:32.905Z,93.00
2017-08-21T23:20:00.479Z,92.90
2017-08-21T23:22:27.956Z,92.90
2017-08-21T23:24:55.482Z,92.80
2017-08-21T23:27:22.994Z,92.80
2017-08-21T23:29:50.692Z,93.00
2017-08-21T23:32:18.186Z,93.10
2017-08-21T23:34:45.833Z,93.10
2017-08-21T23:37:13.369Z,93.30
2017-08-21T23:39:40.872Z,93.20
2017-08-21T23:42:08.358Z,93.10
2017-08-21T23:44:35.911Z,93.20
2017-08-21T23:47:03.427Z,93.30
2017-08-21T23:49:30.979Z,93.20
2017-08-21T23:51:58.494Z,93.20
2017-08-21T23:54:26.001Z,93.20
2017-08-21T23:56:53.526Z,93.30
2017-08-21T23:59:21.027Z,93.50
